Time;durP1;ratioP1;P1;durP2;ratioP2;P2;SDS_P1;SDS_P2;PMS_P1;PMS_P2;Temp;Humidity;BMP_temperature;BMP_pressure;BME280_temperature;BME280_humidity;BME280_pressure;Samples;Min_cycle;Max_cycle;Signal;HPM_P1;HPM_P2
2021/07/29 00:00:29;;;;;;;0.70;0.50;;;18.70;99.90;;;;;;5043358;28;20923;-74
2021/07/29 00:02:54;;;;;;;2.60;0.90;;;18.70;99.90;;;;;;5035298;28;20414;-74
2021/07/29 00:05:20;;;;;;;0.70;0.50;;;18.70;99.90;;;;;;5049014;28;20795;-75
2021/07/29 00:07:49;;;;;;;0.90;0.80;;;18.60;99.90;;;;;;5025390;28;20753;-75
2021/07/29 00:10:15;;;;;;;0.80;0.70;;;18.60;99.90;;;;;;5047879;28;20697;-75
2021/07/29 00:12:40;;;;;;;1.33;0.80;;;18.60;99.90;;;;;;5033927;28;20422;-74
2021/07/29 00:15:10;;;;;;;1.23;1.13;;;18.60;99.90;;;;;;5045374;28;20739;-74
2021/07/29 00:20:14;;;;;;;0.70;0.50;;;18.50;99.90;;;;;;5041677;28;20409;-73
2021/07/29 00:22:44;;;;;;;0.80;0.60;;;18.60;99.90;;;;;;5042907;28;20898;-75
2021/07/29 00:25:14;;;;;;;1.00;0.80;;;18.50;99.90;;;;;;5045917;28;20433;-75
2021/07/29 00:27:40;;;;;;;1.47;0.87;;;18.50;99.90;;;;;;5045599;28;20425;-74
2021/07/29 00:30:07;;;;;;;1.00;0.90;;;18.50;99.90;;;;;;5045558;28;20424;-75
2021/07/29 00:32:33;;;;;;;0.80;0.60;;;18.50;99.90;;;;;;5052455;28;20417;-74
2021/07/29 00:35:01;;;;;;;1.13;1.00;;;18.50;99.90;;;;;;5039239;28;20430;-74
2021/07/29 00:37:27;;;;;;;0.70;0.50;;;18.50;99.90;;;;;;5052976;28;20202;-75
2021/07/29 00:39:52;;;;;;;0.70;0.60;;;18.40;99.90;;;;;;5045083;28;20948;-74
2021/07/29 00:42:18;;;;;;;0.70;0.60;;;18.40;99.90;;;;;;5054071;28;20237;-74
2021/07/29 00:44:43;;;;;;;0.80;0.60;;;18.40;99.90;;;;;;5052349;28;20191;-75
2021/07/29 00:47:10;;;;;;;0.70;0.60;;;18.40;99.90;;;;;;5034379;28;20298;-74
2021/07/29 00:49:36;;;;;;;1.90;1.17;;;18.30;99.90;;;;;;5035632;28;20199;-74
2021/07/29 00:52:02;;;;;;;1.27;1.17;;;18.30;99.90;;;;;;5034494;28;20425;-74
2021/07/29 00:54:29;;;;;;;0.70;0.60;;;18.30;99.90;;;;;;5035507;28;20434;-74
2021/07/29 00:56:57;;;;;;;0.70;0.60;;;18.20;99.90;;;;;;5034380;28;20462;-74
2021/07/29 00:59:24;;;;;;;0.80;0.70;;;18.20;99.90;;;;;;5048339;28;20417;-74
2021/07/29 01:01:49;;;;;;;0.70;0.50;;;18.20;99.90;;;;;;5018730;28;20413;-74
2021/07/29 01:04:15;;;;;;;1.10;1.00;;;18.10;99.90;;;;;;5016793;28;20438;-75
2021/07/29 01:06:40;;;;;;;0.70;0.60;;;18.00;99.90;;;;;;5037109;28;20194;-75
2021/07/29 01:09:10;;;;;;;0.80;0.60;;;18.00;99.90;;;;;;5052190;28;20644;-74
2021/07/29 01:11:37;;;;;;;1.27;1.17;;;17.90;99.90;;;;;;5053928;28;20167;-75
2021/07/29 01:14:03;;;;;;;0.70;0.50;;;17.80;99.90;;;;;;5048731;28;20450;-75
2021/07/29 01:16:28;;;;;;;0.90;0.77;;;17.70;99.90;;;;;;5040215;28;20409;-75
2021/07/29 01:18:55;;;;;;;0.70;0.60;;;17.70;99.90;;;;;;5052282;28;20445;-75
2021/07/29 01:21:21;;;;;;;1.43;1.33;;;17.60;99.90;;;;;;5049320;28;20254;-74
2021/07/29 01:23:46;;;;;;;0.70;0.60;;;17.60;99.90;;;;;;5051626;28;20480;-74
2021/07/29 01:26:12;;;;;;;1.13;1.03;;;17.60;99.90;;;;;;5037048;28;20167;-75
2021/07/29 01:28:37;;;;;;;0.70;0.60;;;17.50;99.90;;;;;;5043013;28;20175;-75
2021/07/29 01:31:03;;;;;;;1.00;0.90;;;17.40;99.90;;;;;;5052305;28;20246;-75
2021/07/29 01:33:29;;;;;;;0.80;0.60;;;17.40;99.90;;;;;;5041108;28;20286;-73
2021/07/29 01:35:55;;;;;;;2.03;0.70;;;17.40;99.90;;;;;;5033531;28;20544;-74
2021/07/29 01:38:20;;;;;;;1.10;0.80;;;17.30;99.90;;;;;;5046386;28;20453;-74
2021/07/29 01:40:45;;;;;;;0.87;0.63;;;17.30;99.90;;;;;;5049869;28;20182;-74
2021/07/29 01:43:11;;;;;;;0.80;0.80;;;17.30;99.90;;;;;;5039905;28;20191;-74
2021/07/29 01:45:36;;;;;;;0.80;0.70;;;17.30;99.90;;;;;;5038711;28;20167;-74
2021/07/29 01:48:02;;;;;;;1.77;0.77;;;17.30;99.90;;;;;;5041204;28;20179;-74
2021/07/29 01:50:27;;;;;;;1.83;1.03;;;17.20;99.90;;;;;;5033384;28;20189;-74
2021/07/29 01:52:53;;;;;;;0.90;0.70;;;17.20;99.90;;;;;;5034243;28;20179;-74
2021/07/29 01:55:18;;;;;;;1.00;0.70;;;17.20;99.90;;;;;;5045211;28;20185;-74
2021/07/29 01:57:44;;;;;;;1.60;0.90;;;17.20;99.90;;;;;;5044775;28;20202;-74
2021/07/29 02:00:10;;;;;;;2.10;0.90;;;17.10;99.90;;;;;;5046940;28;20653;-74
2021/07/29 02:02:36;;;;;;;0.70;0.50;;;17.10;99.90;;;;;;5044281;28;20180;-74
2021/07/29 02:05:02;;;;;;;1.87;0.80;;;17.20;99.90;;;;;;5033855;28;20437;-74
2021/07/29 02:07:27;;;;;;;0.90;0.80;;;17.20;99.90;;;;;;5038881;28;20182;-75
2021/07/29 02:09:53;;;;;;;0.80;0.60;;;17.20;99.90;;;;;;5052493;28;20175;-75
2021/07/29 02:12:18;;;;;;;0.80;0.70;;;17.20;99.90;;;;;;5038547;28;20180;-75
2021/07/29 02:14:44;;;;;;;1.27;0.60;;;17.20;99.90;;;;;;5046433;28;20684;-74
2021/07/29 02:17:09;;;;;;;0.70;0.60;;;17.20;99.90;;;;;;5037023;28;20191;-74
2021/07/29 02:19:35;;;;;;;0.70;0.50;;;17.20;99.90;;;;;;5047471;28;20737;-74
2021/07/29 02:22:00;;;;;;;0.70;0.70;;;17.20;99.90;;;;;;5044910;28;20175;-73
2021/07/29 02:24:26;;;;;;;0.70;0.53;;;17.20;99.90;;;;;;5021804;28;20206;-74
2021/07/29 02:26:51;;;;;;;0.70;0.50;;;17.20;99.90;;;;;;5033118;28;20618;-74
2021/07/29 02:29:17;;;;;;;0.90;0.80;;;17.20;99.90;;;;;;5036917;28;20258;-74
2021/07/29 02:31:42;;;;;;;1.40;0.93;;;17.10;99.90;;;;;;5032552;28;20175;-74
2021/07/29 02:34:08;;;;;;;1.23;1.13;;;17.20;99.90;;;;;;5044833;28;20781;-74
2021/07/29 02:36:33;;;;;;;0.80;0.80;;;17.10;99.90;;;;;;5036246;28;20933;-74
2021/07/29 02:38:59;;;;;;;2.20;2.10;;;17.10;99.90;;;;;;5051540;28;20290;-74
2021/07/29 02:41:25;;;;;;;0.70;0.60;;;17.10;99.90;;;;;;5040218;28;20521;-74
2021/07/29 02:43:50;;;;;;;0.73;0.60;;;17.10;99.90;;;;;;5036963;28;20230;-74
2021/07/29 02:46:16;;;;;;;0.70;0.53;;;17.20;99.90;;;;;;5031473;28;20183;-74
2021/07/29 02:48:41;;;;;;;0.70;0.50;;;17.20;99.90;;;;;;5035046;28;20210;-74
2021/07/29 02:51:07;;;;;;;1.10;0.60;;;17.10;99.90;;;;;;5044143;28;20547;-75
2021/07/29 02:53:33;;;;;;;0.80;0.80;;;17.20;99.90;;;;;;5051809;28;20202;-75
2021/07/29 02:55:59;;;;;;;0.80;0.60;;;17.10;99.90;;;;;;5037912;28;20179;-74
2021/07/29 02:58:25;;;;;;;1.43;0.73;;;17.10;99.90;;;;;;5031893;28;20453;-74
2021/07/29 03:00:52;;;;;;;0.93;0.83;;;17.10;99.90;;;;;;5033019;28;20458;-74
2021/07/29 03:03:18;;;;;;;1.30;0.70;;;17.10;99.90;;;;;;5050960;28;20441;-75
2021/07/29 03:05:43;;;;;;;0.70;0.60;;;17.10;99.90;;;;;;5048395;28;20437;-74
2021/07/29 03:08:09;;;;;;;2.40;1.03;;;17.10;99.90;;;;;;5038516;28;20191;-74
2021/07/29 03:10:34;;;;;;;0.80;0.60;;;17.10;99.90;;;;;;5043979;28;20175;-74
2021/07/29 03:13:01;;;;;;;1.47;0.87;;;17.10;99.90;;;;;;5047642;28;20249;-74
2021/07/29 03:15:30;;;;;;;1.07;0.83;;;17.10;99.90;;;;;;5032082;28;20256;-75
2021/07/29 03:17:56;;;;;;;0.93;0.70;;;17.10;99.90;;;;;;5022150;28;20458;-75
2021/07/29 03:20:21;;;;;;;0.70;0.60;;;17.10;99.90;;;;;;5037497;28;20413;-74
2021/07/29 03:22:47;;;;;;;0.90;0.70;;;17.00;99.90;;;;;;5041214;28;20187;-74
2021/07/29 03:25:12;;;;;;;0.80;0.60;;;17.00;99.90;;;;;;5033004;28;20277;-74
2021/07/29 03:27:38;;;;;;;0.90;0.70;;;17.00;99.90;;;;;;5045739;28;20191;-74
2021/07/29 03:30:04;;;;;;;0.70;0.50;;;17.00;99.90;;;;;;5046603;28;20187;-74
2021/07/29 03:32:30;;;;;;;0.77;0.63;;;17.00;99.90;;;;;;5045351;28;20262;-75
2021/07/29 03:34:55;;;;;;;0.70;0.60;;;17.00;99.90;;;;;;5030480;28;20532;-75
2021/07/29 03:37:21;;;;;;;0.70;0.50;;;17.00;99.90;;;;;;5035798;28;20195;-75
2021/07/29 03:39:46;;;;;;;0.70;0.50;;;17.00;99.90;;;;;;5041346;28;20183;-74
2021/07/29 03:42:12;;;;;;;0.70;0.60;;;17.00;99.90;;;;;;5044398;28;20187;-74
2021/07/29 03:44:37;;;;;;;0.80;0.60;;;16.90;99.90;;;;;;5047674;28;20740;-74
2021/07/29 03:47:03;;;;;;;0.70;0.60;;;16.90;99.90;;;;;;5044800;28;20190;-75
2021/07/29 03:49:28;;;;;;;0.77;0.60;;;16.90;99.90;;;;;;5026651;28;20236;-74
2021/07/29 03:51:54;;;;;;;1.17;1.03;;;16.90;99.90;;;;;;5048629;28;20183;-75
2021/07/29 03:54:19;;;;;;;0.80;0.67;;;16.90;99.90;;;;;;5051198;28;20199;-74
2021/07/29 03:56:45;;;;;;;1.83;1.57;;;16.80;99.90;;;;;;5020454;28;20184;-74
2021/07/29 03:59:11;;;;;;;0.80;0.70;;;16.90;99.90;;;;;;5035566;28;20632;-74
2021/07/29 04:01:36;;;;;;;0.80;0.70;;;16.80;99.90;;;;;;5043434;28;20641;-74
2021/07/29 04:04:02;;;;;;;0.70;0.70;;;16.70;99.90;;;;;;5030650;28;20660;-74
2021/07/29 04:06:27;;;;;;;0.90;0.90;;;16.80;99.90;;;;;;5035121;28;20279;-74
2021/07/29 04:08:53;;;;;;;1.33;0.70;;;16.70;99.90;;;;;;5044766;28;20196;-74
2021/07/29 04:11:18;;;;;;;0.80;0.67;;;16.80;99.90;;;;;;5031611;28;20178;-74
2021/07/29 04:13:44;;;;;;;0.77;0.70;;;16.80;99.90;;;;;;5034221;28;21815;-74
2021/07/29 04:16:11;;;;;;;1.20;0.77;;;16.80;99.90;;;;;;5044011;28;20195;-75
2021/07/29 04:18:37;;;;;;;1.10;0.90;;;16.80;99.90;;;;;;5043141;28;20207;-75
2021/07/29 04:21:03;;;;;;;1.00;0.70;;;16.80;99.90;;;;;;5030953;28;20429;-75
2021/07/29 04:23:28;;;;;;;0.70;0.50;;;16.80;99.90;;;;;;5035901;28;20545;-74
2021/07/29 04:25:54;;;;;;;0.90;0.80;;;16.80;99.90;;;;;;5034438;28;20707;-74
2021/07/29 04:28:19;;;;;;;0.77;0.57;;;16.80;99.90;;;;;;5039388;28;20171;-75
2021/07/29 04:30:45;;;;;;;0.90;0.90;;;16.80;99.90;;;;;;5041949;28;20183;-75
2021/07/29 04:33:10;;;;;;;0.80;0.70;;;16.80;99.90;;;;;;5043458;28;20174;-75
2021/07/29 04:35:39;;;;;;;0.80;0.60;;;16.80;99.90;;;;;;5038981;28;20188;-74
2021/07/29 04:38:05;;;;;;;0.70;0.50;;;16.80;99.90;;;;;;5039506;28;20192;-74
2021/07/29 04:40:31;;;;;;;0.87;0.60;;;16.90;99.90;;;;;;5041508;28;20440;-74
2021/07/29 04:42:56;;;;;;;0.70;0.50;;;17.00;99.90;;;;;;5049478;28;20172;-74
2021/07/29 04:45:22;;;;;;;1.03;1.03;;;17.00;99.90;;;;;;5041375;28;20438;-73
2021/07/29 04:47:47;;;;;;;0.70;0.50;;;17.00;99.90;;;;;;5043223;28;20640;-73
2021/07/29 04:50:13;;;;;;;0.83;0.77;;;17.00;99.90;;;;;;5054147;28;20704;-75
2021/07/29 04:52:38;;;;;;;0.70;0.50;;;17.00;99.90;;;;;;5045433;28;20205;-75
2021/07/29 04:55:04;;;;;;;1.60;1.50;;;17.00;99.90;;;;;;5042113;28;20305;-73
2021/07/29 04:57:32;;;;;;;0.70;0.60;;;17.10;99.90;;;;;;5036183;28;20571;-74
2021/07/29 04:59:57;;;;;;;1.00;0.90;;;17.00;99.90;;;;;;5033125;28;20451;-73
2021/07/29 05:02:22;;;;;;;1.80;1.70;;;17.00;99.90;;;;;;5045958;28;20941;-73
2021/07/29 05:04:48;;;;;;;1.17;1.07;;;17.00;99.90;;;;;;5034105;28;20253;-74
2021/07/29 05:07:13;;;;;;;4.53;2.03;;;17.10;99.90;;;;;;5039481;28;20234;-74
2021/07/29 05:09:39;;;;;;;3.13;1.63;;;17.10;99.90;;;;;;5053725;28;20190;-74
2021/07/29 05:12:05;;;;;;;0.70;0.50;;;17.20;99.90;;;;;;5040816;28;20172;-74
2021/07/29 05:14:31;;;;;;;1.73;0.70;;;17.20;99.90;;;;;;5033541;28;20208;-74
2021/07/29 05:17:01;;;;;;;0.70;0.60;;;17.20;99.90;;;;;;5046675;28;20490;-74
2021/07/29 05:19:27;;;;;;;2.33;0.80;;;17.30;99.90;;;;;;5044952;28;20182;-74
2021/07/29 05:21:52;;;;;;;0.70;0.60;;;17.30;99.90;;;;;;5053523;28;20417;-73
2021/07/29 05:24:18;;;;;;;0.90;0.60;;;17.30;99.90;;;;;;5046630;28;20198;-75
2021/07/29 05:26:43;;;;;;;0.80;0.70;;;17.40;99.90;;;;;;5036769;28;20237;-74
2021/07/29 05:29:09;;;;;;;0.80;0.80;;;17.40;99.90;;;;;;5049017;28;20233;-74
2021/07/29 05:31:37;;;;;;;0.90;0.70;;;17.50;99.90;;;;;;5039251;28;20258;-74
2021/07/29 05:34:03;;;;;;;0.70;0.50;;;17.50;99.90;;;;;;5042697;28;20192;-74
2021/07/29 05:36:29;;;;;;;1.03;0.93;;;17.60;99.90;;;;;;5036538;28;20441;-73
2021/07/29 05:38:54;;;;;;;0.70;0.50;;;17.60;99.90;;;;;;5036975;28;20466;-74
2021/07/29 05:41:20;;;;;;;0.70;0.50;;;17.70;99.90;;;;;;5037269;28;20171;-74
2021/07/29 05:43:46;;;;;;;0.97;0.80;;;17.70;99.90;;;;;;5042310;28;20282;-74
2021/07/29 05:46:13;;;;;;;0.80;0.80;;;17.70;99.90;;;;;;5033168;28;20465;-74
2021/07/29 05:48:39;;;;;;;1.10;1.00;;;17.80;99.90;;;;;;5049005;28;20281;-74
2021/07/29 05:51:05;;;;;;;0.80;0.80;;;17.90;99.90;;;;;;5044566;28;20931;-74
2021/07/29 05:53:31;;;;;;;0.70;0.50;;;17.90;99.90;;;;;;5042998;28;20456;-74
2021/07/29 05:55:58;;;;;;;0.80;0.60;;;18.00;99.90;;;;;;5048106;28;20468;-74
2021/07/29 05:58:24;;;;;;;1.77;1.43;;;18.00;99.90;;;;;;5036676;28;20470;-75
2021/07/29 06:00:50;;;;;;;1.10;1.00;;;18.00;99.90;;;;;;5037969;28;21019;-75
2021/07/29 06:03:16;;;;;;;0.80;0.60;;;18.10;99.90;;;;;;5018147;28;20737;-75
2021/07/29 06:05:41;;;;;;;0.70;0.60;;;18.10;99.90;;;;;;5041488;28;20206;-75
2021/07/29 06:08:07;;;;;;;2.10;0.87;;;18.10;99.90;;;;;;5041890;28;20167;-75
2021/07/29 06:10:33;;;;;;;0.70;0.50;;;18.10;99.90;;;;;;5033778;28;20592;-74
2021/07/29 06:12:58;;;;;;;2.17;0.97;;;18.20;99.90;;;;;;5051992;28;20182;-75
2021/07/29 06:15:24;;;;;;;1.30;0.70;;;18.20;99.90;;;;;;5048865;28;20317;-74
2021/07/29 06:17:55;;;;;;;0.77;0.60;;;18.30;99.90;;;;;;5039458;28;20195;-74
2021/07/29 06:20:21;;;;;;;5.63;0.80;;;18.40;99.90;;;;;;5034731;28;20579;-75
2021/07/29 06:22:46;;;;;;;1.17;0.80;;;18.40;99.90;;;;;;5024909;28;20418;-75
2021/07/29 06:25:13;;;;;;;0.70;0.50;;;18.60;99.90;;;;;;5042257;28;20187;-74
2021/07/29 06:27:39;;;;;;;0.90;0.83;;;18.70;99.90;;;;;;5039285;28;20185;-75
2021/07/29 06:30:05;;;;;;;0.70;0.50;;;18.80;99.90;;;;;;5038264;28;20425;-75
2021/07/29 06:32:31;;;;;;;0.70;0.50;;;18.80;99.90;;;;;;5040499;28;20603;-75
2021/07/29 06:34:56;;;;;;;0.70;0.60;;;18.80;99.90;;;;;;5050539;28;20516;-75
2021/07/29 06:37:22;;;;;;;0.80;0.63;;;18.80;99.90;;;;;;5041386;28;20200;-75
2021/07/29 06:39:47;;;;;;;0.70;0.50;;;18.90;99.90;;;;;;5014794;28;20175;-76
2021/07/29 06:42:13;;;;;;;0.80;0.70;;;18.90;99.90;;;;;;5025772;28;20205;-75
2021/07/29 06:44:41;;;;;;;3.13;1.87;;;18.90;99.90;;;;;;5032983;28;20199;-75
2021/07/29 06:47:07;;;;;;;0.93;0.90;;;18.90;99.90;;;;;;5036345;28;20527;-74
2021/07/29 06:49:35;;;;;;;0.80;0.60;;;19.00;99.90;;;;;;5052498;28;20417;-75
2021/07/29 06:52:00;;;;;;;1.93;0.97;;;19.20;99.90;;;;;;5044926;28;20453;-74
2021/07/29 06:54:26;;;;;;;0.70;0.60;;;19.30;99.90;;;;;;5039253;28;20973;-75
2021/07/29 06:56:51;;;;;;;0.80;0.70;;;19.50;99.90;;;;;;5045334;28;20178;-75
2021/07/29 06:59:17;;;;;;;0.80;0.70;;;19.50;99.90;;;;;;5038658;28;20179;-75
2021/07/29 07:01:42;;;;;;;0.70;0.50;;;19.70;99.90;;;;;;5040897;28;20175;-75
2021/07/29 07:04:08;;;;;;;0.73;0.50;;;19.90;99.90;;;;;;5050093;28;20202;-75
2021/07/29 07:06:34;;;;;;;0.70;0.60;;;20.00;99.90;;;;;;5038394;28;20532;-75
2021/07/29 07:08:59;;;;;;;0.80;0.60;;;20.00;99.90;;;;;;5044866;28;20182;-75
2021/07/29 07:11:25;;;;;;;1.00;0.80;;;20.00;99.90;;;;;;5045106;28;20178;-75
2021/07/29 07:13:51;;;;;;;0.87;0.80;;;20.00;99.90;;;;;;5051095;28;20603;-75
2021/07/29 07:16:17;;;;;;;0.70;0.50;;;19.90;99.90;;;;;;5018074;28;20427;-75
2021/07/29 07:18:42;;;;;;;0.80;0.80;;;19.90;99.90;;;;;;5026931;28;20282;-75
2021/07/29 07:21:10;;;;;;;0.70;0.60;;;19.90;99.90;;;;;;5021501;28;20244;-74
2021/07/29 07:23:38;;;;;;;0.90;0.60;;;20.10;99.90;;;;;;5013192;28;20243;-74
2021/07/29 07:26:04;;;;;;;0.80;0.80;;;20.40;99.90;;;;;;5012879;28;20415;-74
2021/07/29 07:28:29;;;;;;;1.80;0.87;;;20.60;99.90;;;;;;5008998;28;20958;-74
2021/07/29 07:30:55;;;;;;;0.80;0.63;;;20.80;99.90;;;;;;5026331;28;20491;-75
2021/07/29 07:33:20;;;;;;;0.80;0.50;;;20.90;99.90;;;;;;5027986;28;20233;-75
2021/07/29 07:35:46;;;;;;;1.57;1.47;;;20.90;99.90;;;;;;5029847;28;20262;-75
2021/07/29 07:38:11;;;;;;;8.10;0.90;;;20.90;99.90;;;;;;5020284;28;20234;-76
2021/07/29 07:40:37;;;;;;;0.70;0.50;;;21.00;99.90;;;;;;5030783;28;20332;-75
2021/07/29 07:43:03;;;;;;;0.80;0.60;;;21.10;99.90;;;;;;5016189;28;20541;-75
2021/07/29 07:45:30;;;;;;;2.67;2.50;;;21.20;99.90;;;;;;5011713;28;20187;-75
2021/07/29 07:47:55;;;;;;;0.80;0.80;;;21.20;99.90;;;;;;5013269;28;20426;-76
2021/07/29 07:50:21;;;;;;;0.80;0.60;;;21.00;99.90;;;;;;5015200;28;20472;-76
2021/07/29 07:52:46;;;;;;;0.90;0.80;;;21.20;99.90;;;;;;5026197;28;20247;-75
2021/07/29 07:55:12;;;;;;;1.00;0.90;;;21.50;99.90;;;;;;5021039;28;20612;-75
2021/07/29 07:57:37;;;;;;;0.80;0.67;;;21.70;99.90;;;;;;5020044;28;20187;-76
2021/07/29 08:00:03;;;;;;;0.70;0.50;;;21.90;99.90;;;;;;5018820;28;20258;-76
2021/07/29 08:02:29;;;;;;;0.80;0.70;;;22.20;99.90;;;;;;5020561;28;20170;-76
2021/07/29 08:04:55;;;;;;;0.80;0.60;;;22.10;99.90;;;;;;5019613;28;20514;-75
2021/07/29 08:07:20;;;;;;;1.53;1.43;;;22.30;99.90;;;;;;5004117;28;20183;-76
2021/07/29 08:09:46;;;;;;;0.80;0.80;;;22.40;99.90;;;;;;5022539;28;20263;-76
2021/07/29 08:12:11;;;;;;;2.60;2.20;;;22.50;99.90;;;;;;5025816;28;20199;-76
2021/07/29 08:14:37;;;;;;;1.07;0.87;;;22.70;99.90;;;;;;5029809;28;20214;-76
2021/07/29 08:17:04;;;;;;;1.07;0.80;;;22.80;99.90;;;;;;5044462;28;20179;-76
2021/07/29 08:19:31;;;;;;;1.13;0.70;;;22.80;99.90;;;;;;5046823;28;20277;-76
2021/07/29 08:21:57;;;;;;;0.80;0.50;;;22.40;99.90;;;;;;5024754;28;20949;-74
2021/07/29 08:24:23;;;;;;;6.93;3.00;;;22.20;99.90;;;;;;5044502;28;20479;-76
2021/07/29 08:26:48;;;;;;;0.80;0.60;;;22.30;99.90;;;;;;5039308;28;20410;-75
2021/07/29 08:29:14;;;;;;;2.20;2.10;;;22.70;99.90;;;;;;5026398;28;20728;-76
2021/07/29 08:31:39;;;;;;;0.80;0.60;;;22.90;99.90;;;;;;5044252;28;20171;-75
2021/07/29 08:34:05;;;;;;;0.80;0.50;;;23.00;99.90;;;;;;5044271;28;20191;-75
2021/07/29 08:36:31;;;;;;;0.80;0.60;;;23.00;99.90;;;;;;5042903;28;20190;-76
2021/07/29 08:38:56;;;;;;;0.83;0.63;;;23.10;99.90;;;;;;5044919;28;20202;-76
2021/07/29 08:41:22;;;;;;;0.90;0.80;;;23.40;99.90;;;;;;5041891;28;20657;-75
2021/07/29 08:43:47;;;;;;;0.90;0.70;;;23.70;99.90;;;;;;5043576;28;20210;-75
2021/07/29 08:46:20;;;;;;;0.80;0.60;;;24.20;99.90;;;;;;5042782;28;20199;-76
2021/07/29 08:48:50;;;;;;;0.80;0.60;;;24.50;99.90;;;;;;5045154;28;20171;-76
2021/07/29 08:51:20;;;;;;;0.80;0.60;;;24.70;99.90;;;;;;5027667;28;20424;-75
2021/07/29 08:53:47;;;;;;;0.80;0.60;;;24.50;99.90;;;;;;5042984;28;20452;-76
2021/07/29 08:56:18;;;;;;;0.90;0.80;;;24.00;99.90;;;;;;5042618;28;20790;-76
2021/07/29 08:58:45;;;;;;;3.13;1.27;;;23.90;99.90;;;;;;5039157;28;20457;-75
2021/07/29 09:01:12;;;;;;;0.90;0.70;;;24.00;99.90;;;;;;5041602;28;20421;-76
2021/07/29 09:03:39;;;;;;;0.80;0.60;;;24.10;99.90;;;;;;5043249;28;20433;-75
2021/07/29 09:06:06;;;;;;;1.30;1.00;;;24.30;99.90;;;;;;5044560;28;20429;-75
2021/07/29 09:08:50;;;;;;;0.80;0.70;;;24.20;99.90;;;;;;5043668;28;20425;-75
2021/07/29 09:11:36;;;;;;;0.80;0.60;;;24.20;99.90;;;;;;5042988;28;20771;-75
2021/07/29 09:14:15;;;;;;;0.80;0.60;;;24.00;99.90;;;;;;5042888;28;20820;-75
2021/07/29 09:16:57;;;;;;;0.80;0.50;;;24.10;99.90;;;;;;5042156;28;20477;-76
2021/07/29 09:19:40;;;;;;;0.80;0.70;;;24.10;99.90;;;;;;5044207;28;20418;-76
2021/07/29 09:22:29;;;;;;;0.80;0.60;;;24.00;99.90;;;;;;5023718;28;20856;-76
2021/07/29 09:25:02;;;;;;;0.80;0.50;;;23.70;99.90;;;;;;5043358;28;20793;-75
2021/07/29 09:27:36;;;;;;;0.90;0.70;;;23.60;99.90;;;;;;5043448;28;20452;-75
2021/07/29 09:30:16;;;;;;;0.80;0.60;;;23.30;99.90;;;;;;5041922;28;20453;-75
2021/07/29 09:33:02;;;;;;;0.80;0.60;;;23.00;99.90;;;;;;5041441;28;20835;-75
2021/07/29 09:35:31;;;;;;;0.90;0.70;;;22.70;99.90;;;;;;5045092;28;20405;-76
2021/07/29 09:38:04;;;;;;;1.73;1.33;;;22.70;99.90;;;;;;5046072;28;20453;-75
2021/07/29 09:40:59;;;;;;;0.80;0.60;;;22.70;99.90;;;;;;5028736;28;20453;-75
2021/07/29 09:43:32;;;;;;;0.80;0.60;;;22.60;99.90;;;;;;5035309;28;20449;-75
2021/07/29 09:46:00;;;;;;;0.80;0.70;;;22.50;99.90;;;;;;5048842;28;20760;-76
2021/07/29 09:48:26;;;;;;;0.80;0.60;;;22.70;99.90;;;;;;5040575;28;20516;-75
2021/07/29 09:50:59;;;;;;;0.70;0.50;;;22.90;99.90;;;;;;5039479;28;20857;-77
2021/07/29 09:53:31;;;;;;;0.80;0.60;;;23.00;99.90;;;;;;5052463;28;20441;-78
2021/07/29 09:55:56;;;;;;;0.80;0.63;;;22.90;99.90;;;;;;5042703;28;20446;-77
2021/07/29 09:58:22;;;;;;;0.80;0.50;;;23.20;99.90;;;;;;5044132;28;20484;-77
2021/07/29 10:00:48;;;;;;;0.80;0.60;;;23.60;99.90;;;;;;5052747;28;20535;-77
2021/07/29 10:03:15;;;;;;;0.90;0.60;;;24.10;99.90;;;;;;5040032;28;20195;-78
2021/07/29 10:05:52;;;;;;;0.80;0.60;;;24.20;99.90;;;;;;5053905;28;20222;-77
2021/07/29 10:08:31;;;;;;;0.80;0.60;;;24.00;99.90;;;;;;5044891;28;20480;-76
2021/07/29 10:10:59;;;;;;;0.90;0.80;;;23.60;99.90;;;;;;5049084;28;20466;-77
2021/07/29 10:13:38;;;;;;;0.73;0.60;;;23.30;99.90;;;;;;5041910;28;20437;-76
2021/07/29 10:16:08;;;;;;;2.40;0.90;;;23.00;99.90;;;;;;5058804;28;20507;-77
2021/07/29 10:18:53;;;;;;;1.27;0.80;;;22.80;99.90;;;;;;5044761;28;20489;-75
2021/07/29 10:21:26;;;;;;;1.87;1.70;;;22.70;99.90;;;;;;5041844;28;20410;-77
2021/07/29 10:23:53;;;;;;;0.80;0.60;;;22.50;99.90;;;;;;5044711;28;20430;-77
2021/07/29 10:26:19;;;;;;;1.80;0.60;;;22.50;99.90;;;;;;5043249;28;20495;-77
2021/07/29 10:28:45;;;;;;;1.83;1.73;;;22.30;99.90;;;;;;5044976;28;20414;-77
2021/07/29 10:31:12;;;;;;;0.80;0.70;;;22.20;99.90;;;;;;5043295;28;20422;-76
2021/07/29 10:33:39;;;;;;;1.10;0.83;;;22.10;99.90;;;;;;5045023;28;20281;-77
2021/07/29 10:36:06;;;;;;;1.20;0.70;;;22.40;99.90;;;;;;5044948;28;20418;-77
2021/07/29 10:38:45;;;;;;;0.80;0.60;;;23.00;99.90;;;;;;5042433;28;20497;-77
2021/07/29 10:41:14;;;;;;;1.20;0.70;;;23.50;99.90;;;;;;5045323;28;20409;-76
2021/07/29 10:43:40;;;;;;;0.80;0.60;;;24.20;99.90;;;;;;5060292;28;20532;-77
2021/07/29 10:46:07;;;;;;;1.50;1.10;;;24.70;99.90;;;;;;5043127;28;20927;-77
2021/07/29 10:48:47;;;;;;;0.90;0.70;;;25.10;99.90;;;;;;5043806;28;20417;-76
2021/07/29 10:51:16;;;;;;;1.13;1.03;;;25.70;99.90;;;;;;5045077;28;20497;-77
2021/07/29 10:53:44;;;;;;;0.80;0.60;;;25.60;99.60;;;;;;5045402;28;20437;-77
2021/07/29 10:56:14;;;;;;;1.00;0.90;;;25.30;95.40;;;;;;5041850;28;20418;-76
2021/07/29 10:58:41;;;;;;;1.20;0.70;;;25.40;96.00;;;;;;5047217;28;20547;-77
2021/07/29 11:01:10;;;;;;;0.90;0.77;;;25.60;98.00;;;;;;5063283;28;20495;-76
2021/07/29 11:03:38;;;;;;;1.37;1.27;;;25.80;95.60;;;;;;5044895;28;20499;-75
2021/07/29 11:06:09;;;;;;;0.90;0.67;;;26.30;97.70;;;;;;5060739;28;20484;-77
2021/07/29 11:08:36;;;;;;;0.90;0.70;;;26.80;91.30;;;;;;5042858;28;20765;-77
2021/07/29 11:11:03;;;;;;;0.90;0.60;;;27.10;91.10;;;;;;5043080;28;20890;-76
2021/07/29 11:13:29;;;;;;;1.00;0.90;;;27.20;88.10;;;;;;5039862;28;20438;-75
2021/07/29 11:16:00;;;;;;;0.80;0.60;;;27.40;88.30;;;;;;5041546;28;20450;-75
2021/07/29 11:18:26;;;;;;;1.00;0.90;;;27.80;81.70;;;;;;5041515;28;20452;-75
2021/07/29 11:20:52;;;;;;;0.90;0.80;;;28.00;83.30;;;;;;5042520;28;20413;-76
2021/07/29 11:23:34;;;;;;;1.27;1.17;;;27.60;75.40;;;;;;5042069;28;20277;-76
2021/07/29 11:26:02;;;;;;;1.50;0.70;;;27.10;74.20;;;;;;5040880;28;20948;-75
2021/07/29 11:28:27;;;;;;;0.97;0.87;;;26.70;79.10;;;;;;5042104;28;20756;-75
2021/07/29 11:30:53;;;;;;;2.80;0.70;;;26.30;76.50;;;;;;5038713;28;20445;-75
2021/07/29 11:33:21;;;;;;;0.80;0.60;;;26.00;79.20;;;;;;5042180;28;20195;-75
2021/07/29 11:35:47;;;;;;;1.00;0.70;;;25.70;83.60;;;;;;5040789;28;20417;-75
2021/07/29 11:38:22;;;;;;;0.90;0.63;;;25.50;84.10;;;;;;5040477;28;20823;-75
2021/07/29 11:40:57;;;;;;;0.80;0.60;;;25.50;86.00;;;;;;5039464;28;20409;-75
2021/07/29 11:43:24;;;;;;;0.80;0.70;;;25.60;91.60;;;;;;5046540;28;20439;-75
2021/07/29 11:45:50;;;;;;;0.80;0.60;;;25.70;88.70;;;;;;5040884;28;20413;-75
2021/07/29 11:48:21;;;;;;;0.80;0.77;;;25.80;90.10;;;;;;5044954;28;20414;-75
2021/07/29 11:50:48;;;;;;;0.83;0.60;;;26.00;88.00;;;;;;5046195;28;20856;-76
2021/07/29 11:53:13;;;;;;;1.47;0.60;;;26.00;85.00;;;;;;5045423;28;20441;-75
2021/07/29 11:55:40;;;;;;;0.80;0.60;;;26.00;82.80;;;;;;5046046;28;20448;-75
2021/07/29 11:58:07;;;;;;;0.80;0.60;;;25.90;78.50;;;;;;5046070;28;20196;-76
2021/07/29 12:00:32;;;;;;;0.80;0.60;;;25.50;78.70;;;;;;5020231;28;20467;-75
2021/07/29 12:03:00;;;;;;;0.97;0.87;;;25.20;79.30;;;;;;5035450;28;20422;-75
2021/07/29 12:05:27;;;;;;;1.07;0.70;;;25.10;84.90;;;;;;5036737;28;20172;-75
2021/07/29 12:07:53;;;;;;;1.07;0.70;;;24.80;82.30;;;;;;5043340;28;20418;-75
2021/07/29 12:10:22;;;;;;;0.97;0.87;;;24.80;86.40;;;;;;5040420;28;20421;-75
2021/07/29 12:12:48;;;;;;;0.90;0.60;;;25.10;90.00;;;;;;5051105;28;20416;-75
2021/07/29 12:15:14;;;;;;;2.70;0.80;;;25.50;92.20;;;;;;5036265;28;21291;-74
2021/07/29 12:17:41;;;;;;;0.80;0.60;;;25.70;91.60;;;;;;5041654;28;20215;-74
2021/07/29 12:20:07;;;;;;;0.80;0.50;;;25.90;90.80;;;;;;5036650;28;20962;-74
2021/07/29 12:22:37;;;;;;;1.00;0.83;;;26.10;89.60;;;;;;5035124;28;20246;-74
2021/07/29 12:25:05;;;;;;;1.07;0.67;;;26.30;87.80;;;;;;5033547;28;20485;-75
2021/07/29 12:27:46;;;;;;;3.63;2.20;;;26.70;82.40;;;;;;5034852;28;20434;-74
2021/07/29 12:30:42;;;;;;;1.00;0.90;;;26.90;84.90;;;;;;5036133;28;20426;-75
2021/07/29 12:33:12;;;;;;;1.00;0.90;;;26.80;73.70;;;;;;5009114;28;20746;-75
2021/07/29 12:35:42;;;;;;;0.90;0.60;;;26.60;75.60;;;;;;5034562;28;20903;-75
2021/07/29 12:38:09;;;;;;;0.80;0.70;;;26.60;80.30;;;;;;5034785;28;20464;-75
2021/07/29 12:40:35;;;;;;;1.20;1.07;;;26.40;82.90;;;;;;5047428;28;20496;-75
2021/07/29 12:43:23;;;;;;;2.40;2.00;;;26.30;75.10;;;;;;5054387;28;20425;-75
2021/07/29 12:46:04;;;;;;;1.67;1.57;;;26.00;81.90;;;;;;5050919;28;20934;-75
2021/07/29 12:48:31;;;;;;;0.90;0.80;;;25.60;81.00;;;;;;5045963;28;20433;-75
2021/07/29 12:50:58;;;;;;;0.80;0.60;;;25.90;87.50;;;;;;5035655;28;20436;-75